Time;durP1;ratioP1;P1;durP2;ratioP2;P2;SDS_P1;SDS_P2;PMS_P1;PMS_P2;Temp;Humidity;BMP_temperature;BMP_pressure;BME280_temperature;BME280_humidity;BME280_pressure;Samples;Min_cycle;Max_cycle;Signal;HPM_P1;HPM_P2
2023/03/01 00:01:11;;;;;;;55.67;47.50;;;11.30;60.00;;;;;;4995881;28;91065;-55
2023/03/01 00:03:37;;;;;;;55.43;47.80;;;11.30;59.50;;;;;;4992406;28;96239;-55
2023/03/01 00:06:04;;;;;;;56.03;47.97;;;11.40;59.50;;;;;;4991826;28;91173;-56
2023/03/01 00:08:30;;;;;;;56.97;48.47;;;11.30;59.60;;;;;;4990037;28;91341;-58
2023/03/01 00:11:08;;;;;;;56.47;48.22;;;11.30;59.70;;;;;;4999333;28;90126;-52
2023/03/01 00:13:35;;;;;;;56.47;47.63;;;11.30;59.50;;;;;;4991736;28;90499;-57
2023/03/01 00:16:05;;;;;;;55.40;47.73;;;11.30;59.60;;;;;;4987033;28;90685;-56
2023/03/01 00:18:31;;;;;;;56.37;48.00;;;11.30;59.70;;;;;;4982697;28;91172;-53
2023/03/01 00:20:57;;;;;;;56.17;47.90;;;11.30;59.60;;;;;;4982354;28;90414;-55
2023/03/01 00:23:23;;;;;;;54.77;47.40;;;11.30;59.60;;;;;;4987936;28;90756;-53
2023/03/01 00:25:49;;;;;;;56.77;47.93;;;11.30;59.70;;;;;;4984609;28;92514;-53
2023/03/01 00:28:15;;;;;;;56.23;47.60;;;11.30;59.50;;;;;;4988548;28;92662;-55
2023/03/01 00:30:41;;;;;;;55.70;47.93;;;11.30;59.50;;;;;;4983550;28;95794;-57
2023/03/01 00:33:07;;;;;;;56.73;48.10;;;11.40;59.40;;;;;;4979703;28;90639;-55
2023/03/01 00:35:33;;;;;;;56.38;47.92;;;11.40;59.50;;;;;;4985921;28;90982;-55
2023/03/01 00:37:59;;;;;;;54.90;47.30;;;11.30;59.40;;;;;;4982665;28;91166;-51
2023/03/01 00:40:29;;;;;;;55.15;47.13;;;11.30;59.40;;;;;;4991351;28;90808;-56
2023/03/01 00:42:55;;;;;;;55.85;47.85;;;11.30;59.60;;;;;;4990263;28;89425;-56
2023/03/01 00:45:21;;;;;;;56.97;48.10;;;11.30;59.60;;;;;;4988313;28;90163;-56
2023/03/01 00:47:48;;;;;;;55.53;47.73;;;11.30;59.50;;;;;;4975629;28;91945;-56
2023/03/01 00:50:14;;;;;;;57.13;48.47;;;11.30;59.60;;;;;;4983292;28;94158;-56
2023/03/01 00:52:40;;;;;;;57.13;47.85;;;11.30;59.50;;;;;;4985152;28;90204;-54
2023/03/01 00:55:06;;;;;;;56.67;48.33;;;11.30;59.50;;;;;;4979556;28;90887;-57
2023/03/01 00:57:33;;;;;;;57.15;47.95;;;11.30;59.50;;;;;;4991201;28;90260;-57
2023/03/01 00:59:59;;;;;;;54.92;47.53;;;11.30;59.50;;;;;;4997876;28;89845;-57
2023/03/01 01:02:25;;;;;;;56.45;47.42;;;11.30;59.50;;;;;;4987412;28;90096;-55
2023/03/01 01:04:51;;;;;;;55.90;47.77;;;11.30;59.40;;;;;;4984272;28;91378;-56
2023/03/01 01:07:17;;;;;;;55.35;47.63;;;11.30;59.50;;;;;;4988390;28;93069;-56
2023/03/01 01:09:43;;;;;;;56.15;48.08;;;11.30;59.50;;;;;;4977235;28;92337;-55
2023/03/01 01:12:09;;;;;;;54.47;47.20;;;11.30;59.50;;;;;;4975559;28;90449;-51
2023/03/01 01:14:35;;;;;;;58.37;48.83;;;11.30;59.60;;;;;;4995178;28;91941;-56
2023/03/01 01:17:00;;;;;;;55.30;47.83;;;11.30;59.60;;;;;;4984517;28;91190;-55
2023/03/01 01:19:26;;;;;;;55.70;47.65;;;11.30;59.50;;;;;;4988864;28;92812;-56
2023/03/01 01:21:52;;;;;;;57.17;47.87;;;11.30;59.50;;;;;;4979429;28;91556;-56
2023/03/01 01:24:19;;;;;;;55.37;47.13;;;11.30;59.50;;;;;;4988506;28;90102;-54
2023/03/01 01:26:45;;;;;;;56.57;48.43;;;11.20;59.50;;;;;;4961624;28;91854;-53
2023/03/01 01:29:11;;;;;;;56.13;48.00;;;11.20;59.60;;;;;;4976103;28;90276;-56
2023/03/01 01:31:39;;;;;;;56.63;48.37;;;11.20;59.40;;;;;;4991278;28;90207;-49
2023/03/01 01:34:07;;;;;;;55.35;47.97;;;11.30;59.70;;;;;;4983027;28;93945;-55
2023/03/01 01:36:34;;;;;;;56.80;48.05;;;11.20;59.50;;;;;;4985023;28;91805;-53
2023/03/01 01:39:00;;;;;;;55.33;47.90;;;11.30;59.50;;;;;;4984320;28;94007;-56
2023/03/01 01:41:27;;;;;;;56.40;47.37;;;11.20;59.60;;;;;;4987772;28;93486;-54
2023/03/01 01:44:12;;;;;;;54.83;47.33;;;11.20;59.50;;;;;;4980393;28;89914;-52
2023/03/01 01:46:41;;;;;;;55.47;47.30;;;11.20;59.70;;;;;;4983098;28;92197;-54
2023/03/01 01:49:21;;;;;;;55.57;47.67;;;11.20;59.40;;;;;;4987199;28;92168;-55
2023/03/01 01:51:53;;;;;;;56.00;47.70;;;11.20;59.60;;;;;;4981996;28;90074;-56
2023/03/01 01:54:25;;;;;;;54.97;47.13;;;11.20;59.70;;;;;;4988648;28;91425;-55
2023/03/01 01:57:05;;;;;;;55.77;47.53;;;11.20;59.50;;;;;;4992472;28;90538;-55
2023/03/01 01:59:32;;;;;;;54.83;47.03;;;11.30;59.50;;;;;;4994189;28;89812;-57
2023/03/01 02:02:01;;;;;;;57.57;47.70;;;11.20;59.40;;;;;;4988940;28;91542;-55
2023/03/01 02:04:28;;;;;;;56.23;47.47;;;11.20;59.40;;;;;;4979503;28;92103;-56
2023/03/01 02:07:16;;;;;;;56.40;47.97;;;11.20;59.40;;;;;;4986298;28;90798;-50
2023/03/01 02:09:51;;;;;;;55.07;47.63;;;11.20;59.50;;;;;;4984469;28;90190;-56
2023/03/01 02:12:19;;;;;;;54.33;47.33;;;11.20;59.50;;;;;;4981441;28;90547;-54
2023/03/01 02:14:45;;;;;;;56.73;47.83;;;11.20;59.40;;;;;;4991754;28;91219;-56
2023/03/01 02:17:14;;;;;;;55.47;47.77;;;11.20;59.50;;;;;;4991796;28;91407;-55
2023/03/01 02:20:06;;;;;;;55.83;48.03;;;11.20;59.50;;;;;;4989356;28;91162;-55
2023/03/01 02:22:34;;;;;;;55.13;47.50;;;11.20;59.40;;;;;;4979581;28;93274;-55
2023/03/01 02:25:18;;;;;;;57.07;48.27;;;11.20;59.60;;;;;;4985143;28;90421;-56
2023/03/01 02:28:15;;;;;;;54.33;47.53;;;11.20;59.40;;;;;;4981010;28;90956;-54
2023/03/01 02:33:33;;;;;;;54.30;47.10;;;11.10;59.50;;;;;;4974421;28;91077;-56
2023/03/01 02:36:09;;;;;;;56.10;48.00;;;11.20;59.50;;;;;;4978641;28;95660;-55
2023/03/01 02:38:35;;;;;;;55.10;47.63;;;11.20;59.60;;;;;;4981159;28;90724;-56
2023/03/01 02:41:04;;;;;;;55.57;47.57;;;11.20;59.60;;;;;;4984443;28;90815;-55
2023/03/01 02:43:32;;;;;;;54.37;47.20;;;11.10;59.40;;;;;;4985286;28;95998;-56
2023/03/01 02:46:01;;;;;;;56.77;48.17;;;11.10;59.50;;;;;;4974289;28;92000;-56
2023/03/01 02:48:27;;;;;;;55.97;47.63;;;11.10;59.50;;;;;;4981946;28;89897;-56
2023/03/01 02:51:21;;;;;;;55.93;47.33;;;11.10;59.50;;;;;;4997757;28;91279;-55
2023/03/01 02:54:05;;;;;;;56.00;47.67;;;11.10;59.50;;;;;;4989786;28;92287;-55
2023/03/01 02:56:31;;;;;;;54.80;47.17;;;11.10;59.60;;;;;;4979695;28;93271;-56
2023/03/01 02:59:00;;;;;;;56.10;47.27;;;11.10;59.60;;;;;;4991620;28;92115;-51
2023/03/01 03:01:36;;;;;;;55.83;47.60;;;11.10;59.50;;;;;;4985904;28;90291;-55
2023/03/01 03:04:07;;;;;;;56.28;47.83;;;11.10;59.60;;;;;;4978937;28;93219;-57
2023/03/01 03:06:33;;;;;;;55.00;47.00;;;11.10;59.60;;;;;;4985407;28;92110;-56
2023/03/01 03:08:59;;;;;;;55.17;47.53;;;11.00;59.60;;;;;;4989536;28;90633;-55
2023/03/01 03:11:25;;;;;;;54.77;47.87;;;11.10;59.70;;;;;;4981687;28;92103;-56
2023/03/01 03:13:51;;;;;;;55.57;47.83;;;11.10;59.70;;;;;;4991226;28;89211;-55
2023/03/01 03:16:18;;;;;;;53.70;46.97;;;11.10;59.70;;;;;;4988093;28;91155;-55
2023/03/01 03:18:43;;;;;;;54.50;46.97;;;11.10;59.60;;;;;;4989163;28;91673;-56
2023/03/01 03:21:11;;;;;;;54.33;47.40;;;11.00;59.60;;;;;;4978191;28;93115;-54
2023/03/01 03:23:37;;;;;;;54.37;47.03;;;11.00;59.60;;;;;;4986494;28;93302;-55
2023/03/01 03:26:04;;;;;;;55.83;47.87;;;11.00;59.70;;;;;;4988935;28;90855;-56
2023/03/01 03:28:33;;;;;;;55.00;47.20;;;11.00;60.00;;;;;;4976171;28;90817;-54
2023/03/01 03:31:03;;;;;;;54.90;46.97;;;11.80;58.90;;;;;;4978112;28;91841;-55
2023/03/01 03:33:32;;;;;;;54.80;46.60;;;13.20;55.90;;;;;;4975754;28;92133;-56
2023/03/01 03:35:57;;;;;;;56.15;47.20;;;14.60;52.40;;;;;;4984623;28;90752;-58
2023/03/01 03:38:24;;;;;;;55.87;47.20;;;15.60;49.90;;;;;;4990497;28;90277;-53
2023/03/01 03:41:02;;;;;;;56.13;46.90;;;16.30;48.00;;;;;;5016660;27;93739;-56
2023/03/01 03:43:28;;;;;;;56.87;47.30;;;16.90;46.60;;;;;;4984022;28;93716;-56
2023/03/01 03:45:54;;;;;;;57.30;47.50;;;17.30;45.60;;;;;;4984706;28;94367;-56
2023/03/01 03:48:20;;;;;;;57.00;46.87;;;17.60;44.90;;;;;;4992715;28;91387;-54
2023/03/01 03:50:56;;;;;;;56.70;47.53;;;17.80;44.20;;;;;;4989328;28;91238;-56
2023/03/01 03:53:23;;;;;;;57.22;47.63;;;18.10;43.60;;;;;;4984202;28;91121;-56
2023/03/01 03:55:49;;;;;;;56.80;47.67;;;18.20;43.20;;;;;;4980101;28;90339;-55
2023/03/01 03:58:16;;;;;;;56.08;46.67;;;18.30;42.90;;;;;;4981922;28;94001;-55
2023/03/01 04:00:43;;;;;;;56.47;47.03;;;18.40;42.70;;;;;;4980666;28;91168;-52
2023/03/01 04:03:11;;;;;;;57.28;47.53;;;18.40;42.40;;;;;;4985815;28;89530;-55
2023/03/01 04:05:37;;;;;;;56.65;47.28;;;18.40;42.60;;;;;;4987487;28;90854;-56
2023/03/01 04:08:06;;;;;;;56.72;47.67;;;18.30;42.60;;;;;;4982295;28;90859;-57
2023/03/01 04:10:38;;;;;;;57.15;47.45;;;18.30;42.60;;;;;;4978487;28;91455;-53
2023/03/01 04:13:05;;;;;;;56.92;47.65;;;17.80;42.80;;;;;;4973387;28;91521;-57
2023/03/01 04:15:32;;;;;;;56.63;47.35;;;17.00;44.50;;;;;;4991208;28;91334;-56
2023/03/01 04:17:59;;;;;;;57.03;47.97;;;16.50;45.80;;;;;;4982739;28;91157;-55
2023/03/01 04:20:26;;;;;;;57.42;47.55;;;16.20;46.70;;;;;;4980158;28;90027;-56
2023/03/01 04:23:20;;;;;;;55.17;46.95;;;16.00;47.10;;;;;;4988146;28;90682;-54
2023/03/01 04:25:53;;;;;;;56.90;47.28;;;15.80;47.60;;;;;;4986065;28;92488;-58
2023/03/01 04:28:21;;;;;;;56.25;47.45;;;15.80;47.80;;;;;;4992559;28;91059;-56
2023/03/01 04:30:47;;;;;;;57.38;47.40;;;15.60;48.10;;;;;;4983725;28;96533;-55
2023/03/01 04:33:13;;;;;;;57.78;48.05;;;15.60;48.20;;;;;;4985041;28;92057;-55
2023/03/01 04:35:40;;;;;;;56.65;47.72;;;15.60;48.20;;;;;;4981849;28;93441;-54
2023/03/01 04:38:06;;;;;;;57.15;47.58;;;15.50;48.60;;;;;;4994765;28;91932;-53
2023/03/01 04:40:32;;;;;;;56.38;47.88;;;15.30;48.70;;;;;;4982371;28;91901;-55
2023/03/01 04:42:58;;;;;;;56.17;47.50;;;15.10;49.20;;;;;;4989126;28;90819;-54
2023/03/01 04:45:24;;;;;;;57.03;48.17;;;15.00;49.50;;;;;;4994215;28;91528;-50
2023/03/01 04:47:51;;;;;;;56.00;47.30;;;14.90;50.00;;;;;;4990624;28;91816;-54
2023/03/01 04:50:20;;;;;;;56.35;47.90;;;14.70;50.30;;;;;;4982645;28;92599;-55
2023/03/01 04:52:46;;;;;;;57.90;48.58;;;14.60;50.70;;;;;;4983439;28;90691;-57
2023/03/01 04:55:12;;;;;;;57.80;47.78;;;14.60;50.80;;;;;;4979884;28;91763;-54
2023/03/01 04:57:38;;;;;;;56.23;47.90;;;14.40;51.10;;;;;;4985910;28;90398;-55
2023/03/01 05:00:19;;;;;;;55.90;47.50;;;14.10;51.70;;;;;;4984704;28;93128;-56
2023/03/01 05:02:53;;;;;;;58.30;48.75;;;13.60;52.90;;;;;;4984823;28;89766;-54
2023/03/01 05:05:20;;;;;;;57.92;48.67;;;13.30;54.00;;;;;;4978085;28;90445;-53
2023/03/01 05:07:46;;;;;;;56.38;48.13;;;13.10;54.40;;;;;;4991652;28;91416;-56
2023/03/01 05:10:11;;;;;;;56.72;47.85;;;13.00;54.60;;;;;;4986352;28;90648;-56
2023/03/01 05:12:37;;;;;;;57.50;48.72;;;12.80;55.10;;;;;;4979834;28;90944;-49
2023/03/01 05:15:06;;;;;;;58.13;48.47;;;12.80;55.40;;;;;;4991862;28;91947;-56
2023/03/01 05:17:33;;;;;;;58.67;48.83;;;12.60;55.50;;;;;;4990361;28;90617;-55
2023/03/01 05:20:00;;;;;;;57.35;48.45;;;12.60;55.80;;;;;;4985610;28;90633;-56
2023/03/01 05:22:26;;;;;;;58.17;48.55;;;12.60;55.70;;;;;;4987039;28;90093;-56
2023/03/01 05:24:53;;;;;;;58.33;48.38;;;12.50;55.90;;;;;;4991706;28;91435;-55
2023/03/01 05:27:21;;;;;;;56.47;47.73;;;12.40;56.10;;;;;;4988538;28;92531;-57
2023/03/01 05:29:47;;;;;;;58.97;48.05;;;12.30;56.20;;;;;;4985001;28;92271;-56
2023/03/01 05:32:15;;;;;;;56.23;47.73;;;12.30;56.20;;;;;;4992843;28;91920;-55
2023/03/01 05:34:41;;;;;;;57.70;48.30;;;12.20;56.30;;;;;;4991071;28;91553;-56
2023/03/01 05:37:08;;;;;;;58.20;48.73;;;12.20;56.30;;;;;;4992022;28;90807;-54
2023/03/01 05:39:34;;;;;;;57.63;47.75;;;12.20;56.50;;;;;;4994748;28;92491;-54
2023/03/01 05:42:01;;;;;;;56.63;47.80;;;12.10;56.70;;;;;;4986715;28;92893;-57
2023/03/01 05:44:28;;;;;;;55.63;47.60;;;12.10;56.70;;;;;;4982440;28;93091;-55
2023/03/01 05:46:54;;;;;;;56.77;48.53;;;12.10;56.60;;;;;;4982847;28;91461;-56
2023/03/01 05:49:23;;;;;;;56.43;47.87;;;12.00;56.90;;;;;;4974074;28;94646;-51
2023/03/01 05:51:51;;;;;;;57.27;48.60;;;12.00;57.10;;;;;;4984582;28;90226;-56
2023/03/01 05:54:19;;;;;;;56.67;48.47;;;11.90;57.20;;;;;;4982006;28;93341;-52
2023/03/01 05:56:45;;;;;;;56.43;48.33;;;11.90;57.30;;;;;;4978586;28;92989;-57
2023/03/01 05:59:11;;;;;;;57.03;48.40;;;11.90;57.30;;;;;;4984216;28;91183;-54
2023/03/01 06:01:37;;;;;;;58.40;48.87;;;11.80;57.40;;;;;;4985850;28;91420;-54
2023/03/01 06:04:04;;;;;;;56.23;48.30;;;11.80;57.70;;;;;;4981022;28;91512;-56
2023/03/01 06:06:32;;;;;;;57.33;48.67;;;11.70;57.90;;;;;;4980368;28;89804;-54
2023/03/01 06:08:58;;;;;;;58.07;48.97;;;11.70;58.00;;;;;;4986844;28;90331;-53
2023/03/01 06:11:24;;;;;;;58.00;48.83;;;11.60;58.40;;;;;;4981334;28;91750;-55
2023/03/01 06:13:50;;;;;;;56.93;47.90;;;11.80;57.60;;;;;;4976666;28;91884;-57
2023/03/01 06:16:15;;;;;;;58.33;48.90;;;12.10;57.20;;;;;;4985471;28;92228;-56
2023/03/01 06:18:41;;;;;;;58.93;48.00;;;12.20;57.00;;;;;;4985995;28;94501;-55
2023/03/01 06:21:08;;;;;;;56.53;48.20;;;12.30;56.50;;;;;;4985615;28;92843;-56
2023/03/01 06:23:34;;;;;;;56.20;48.77;;;12.30;56.30;;;;;;4984253;28;90891;-56
2023/03/01 06:26:00;;;;;;;56.67;47.80;;;12.40;56.10;;;;;;4989645;28;90861;-54
2023/03/01 06:28:25;;;;;;;55.43;47.97;;;12.40;56.40;;;;;;4980179;28;91721;-51
2023/03/01 06:30:51;;;;;;;58.97;48.30;;;12.30;56.30;;;;;;4981388;28;89407;-56
2023/03/01 06:33:19;;;;;;;59.97;48.47;;;12.30;56.40;;;;;;4983919;28;91115;-58
2023/03/01 06:35:46;;;;;;;57.25;49.00;;;12.20;55.60;;;;;;4984826;28;91760;-74
2023/03/01 06:38:14;;;;;;;57.73;48.77;;;12.30;55.30;;;;;;4992002;28;91509;-51
2023/03/01 06:40:40;;;;;;;56.87;48.70;;;12.40;55.40;;;;;;4983588;28;92956;-59
2023/03/01 06:43:07;;;;;;;61.67;48.30;;;12.40;55.20;;;;;;4983109;28;91018;-57
2023/03/01 06:45:33;;;;;;;64.73;49.90;;;12.40;55.30;;;;;;4981848;27;92689;-54
2023/03/01 06:48:06;;;;;;;58.77;48.90;;;12.50;54.90;;;;;;4981045;28;91725;-61
2023/03/01 06:50:32;;;;;;;58.58;48.60;;;12.40;55.30;;;;;;4978012;28;92823;-59
2023/03/01 06:52:58;;;;;;;58.73;49.50;;;12.40;55.50;;;;;;4982603;28;91127;-59
2023/03/01 06:55:25;;;;;;;62.03;49.37;;;12.50;55.30;;;;;;4978568;28;91109;-56
2023/03/01 06:58:00;;;;;;;60.00;49.53;;;12.50;55.30;;;;;;4976423;28;91751;-53
2023/03/01 07:00:27;;;;;;;60.30;49.92;;;12.40;55.40;;;;;;4975241;28;90277;-58
2023/03/01 07:02:53;;;;;;;57.45;48.53;;;12.40;56.20;;;;;;4981858;28;92268;-59
2023/03/01 07:05:20;;;;;;;57.50;48.30;;;12.50;54.90;;;;;;4974350;28;94127;-56
2023/03/01 07:07:46;;;;;;;58.65;48.30;;;12.70;54.20;;;;;;4969877;28;91799;-49
2023/03/01 07:10:12;;;;;;;58.08;49.13;;;12.80;53.50;;;;;;4972020;28;91919;-51
2023/03/01 07:12:38;;;;;;;58.33;48.75;;;13.10;53.70;;;;;;4977317;28;91465;-48
2023/03/01 07:15:04;;;;;;;57.67;48.65;;;13.20;53.20;;;;;;4979762;28;92050;-63
2023/03/01 07:17:30;;;;;;;59.40;48.38;;;13.30;53.20;;;;;;4974481;28;95857;-59
2023/03/01 07:19:56;;;;;;;59.15;48.67;;;13.30;53.00;;;;;;4982148;28;90770;-55
2023/03/01 07:22:22;;;;;;;59.45;48.70;;;13.40;53.00;;;;;;4979033;28;91242;-60
2023/03/01 07:24:47;;;;;;;60.25;49.40;;;13.40;52.90;;;;;;4989498;28;90904;-72
2023/03/01 07:27:13;;;;;;;59.53;48.22;;;13.50;52.90;;;;;;4976163;28;97058;-55
2023/03/01 07:31:19;;;;;;;57.95;48.50;;;13.40;52.30;;;;;;4973078;28;83356;-57
2023/03/01 07:34:16;;;;;;;58.35;48.58;;;13.40;51.60;;;;;;5012152;27;85635;-64
2023/03/01 07:36:43;;;;;;;58.92;48.35;;;13.40;53.00;;;;;;4995849;27;87559;-50
2023/03/01 07:39:10;;;;;;;58.78;48.50;;;13.30;53.50;;;;;;5000639;27;91662;-65
2023/03/01 07:41:36;;;;;;;57.90;48.20;;;13.40;54.10;;;;;;4991034;27;85737;-58
2023/03/01 07:44:01;;;;;;;63.08;49.20;;;13.40;54.30;;;;;;4991914;27;86463;-58
2023/03/01 07:46:27;;;;;;;57.78;48.35;;;13.40;54.70;;;;;;4993073;27;88693;-54
2023/03/01 07:48:53;;;;;;;60.33;49.08;;;13.50;55.20;;;;;;4994847;27;88797;-59
2023/03/01 07:51:18;;;;;;;59.53;48.40;;;13.50;55.20;;;;;;4996023;27;86673;-59
2023/03/01 07:53:47;;;;;;;59.15;48.45;;;13.50;55.50;;;;;;4993962;27;86895;-49
2023/03/01 07:56:41;;;;;;;61.83;50.10;;;13.60;55.20;;;;;;4959390;28;83192;-62
2023/03/01 07:59:07;;;;;;;61.60;49.17;;;13.50;55.00;;;;;;4946059;28;90529;-61
2023/03/01 08:01:32;;;;;;;60.80;48.80;;;13.40;54.20;;;;;;4944683;28;87793;-61
2023/03/01 08:03:58;;;;;;;58.50;47.95;;;13.30;54.10;;;;;;4946253;28;85442;-54
2023/03/01 08:06:23;;;;;;;59.15;47.95;;;13.40;53.90;;;;;;4954546;28;88259;-52
2023/03/01 08:08:49;;;;;;;59.90;48.17;;;13.70;53.00;;;;;;4942273;28;85833;-55
2023/03/01 08:11:15;;;;;;;61.17;49.33;;;13.90;52.50;;;;;;4940535;28;86885;-52
2023/03/01 08:13:42;;;;;;;59.55;48.75;;;14.00;52.10;;;;;;4939897;28;89130;-58
2023/03/01 08:16:11;;;;;;;61.72;49.28;;;14.10;52.00;;;;;;4946883;28;87507;-57
2023/03/01 08:18:37;;;;;;;59.30;47.85;;;14.10;52.00;;;;;;4948526;28;87336;-61
2023/03/01 08:21:12;;;;;;;59.72;48.92;;;14.10;51.80;;;;;;4943841;28;86979;-59
2023/03/01 08:23:38;;;;;;;60.00;48.35;;;14.10;51.70;;;;;;4937958;28;86881;-54
2023/03/01 08:26:08;;;;;;;61.72;49.63;;;14.20;51.70;;;;;;4946322;28;86701;-72
2023/03/01 08:33:11;;;;;;;59.17;48.25;;;14.30;51.40;;;;;;4976295;28;83239;-55
2023/03/01 08:37:02;;;;;;;60.78;48.95;;;14.20;50.20;;;;;;5002794;27;83481;-53
2023/03/01 08:39:28;;;;;;;59.20;48.03;;;14.20;51.20;;;;;;4976518;28;87765;-50
2023/03/01 08:41:54;;;;;;;61.58;48.95;;;14.20;51.30;;;;;;4987611;28;87864;-51
2023/03/01 08:44:23;;;;;;;61.97;48.90;;;14.20;51.60;;;;;;4967042;28;87116;-57
2023/03/01 08:46:51;;;;;;;58.88;47.90;;;14.20;51.80;;;;;;4973922;28;86600;-49
2023/03/01 08:49:18;;;;;;;59.88;48.10;;;14.20;51.50;;;;;;4987011;27;86557;-56
2023/03/01 08:51:45;;;;;;;59.22;48.25;;;14.40;52.40;;;;;;4972144;28;91339;-64
2023/03/01 08:54:14;;;;;;;60.00;48.03;;;14.40;52.50;;;;;;4982152;28;87780;-58
2023/03/01 08:59:01;;;;;;;60.42;47.95;;;14.30;52.10;;;;;;4964981;28;84802;-52
2023/03/01 09:01:27;;;;;;;60.35;48.40;;;14.40;52.40;;;;;;4964470;28;86200;-58
2023/03/01 09:03:53;;;;;;;63.72;49.20;;;14.40;51.90;;;;;;4949460;28;86298;-56
2023/03/01 09:06:18;;;;;;;63.55;48.45;;;14.40;51.10;;;;;;4955371;28;86527;-57
2023/03/01 09:08:47;;;;;;;62.75;48.80;;;14.30;50.80;;;;;;4962902;28;86496;-49
2023/03/01 09:11:16;;;;;;;59.38;48.03;;;14.30;51.10;;;;;;4967814;28;86201;-60
2023/03/01 09:13:42;;;;;;;59.55;48.60;;;14.20;51.90;;;;;;4962062;28;87417;-52
2023/03/01 09:16:08;;;;;;;61.58;48.72;;;14.30;52.40;;;;;;4955052;28;86075;-57
2023/03/01 09:18:35;;;;;;;63.92;48.65;;;14.20;52.80;;;;;;4956520;28;87183;-49
2023/03/01 09:21:07;;;;;;;61.83;48.67;;;14.30;53.20;;;;;;4950296;28;89529;-54
2023/03/01 09:23:38;;;;;;;59.78;48.75;;;14.30;53.40;;;;;;4961246;28;87445;-62
2023/03/01 09:26:04;;;;;;;59.58;48.75;;;14.30;54.10;;;;;;4970075;28;86202;-58
2023/03/01 09:28:31;;;;;;;58.92;47.90;;;14.30;53.70;;;;;;4960910;28;86229;-61
2023/03/01 09:31:01;;;;;;;59.65;48.40;;;14.30;54.20;;;;;;4955541;28;90978;-62
2023/03/01 09:33:28;;;;;;;60.53;48.35;;;14.30;54.20;;;;;;4961409;28;85861;-57
2023/03/01 09:35:58;;;;;;;59.30;48.00;;;14.40;54.40;;;;;;4955895;28;86503;-62
2023/03/01 09:38:24;;;;;;;60.00;47.50;;;14.50;54.20;;;;;;4964892;28;86067;-64
2023/03/01 09:40:50;;;;;;;61.45;48.00;;;14.50;54.20;;;;;;4955602;28;87142;-60
2023/03/01 09:43:25;;;;;;;59.22;47.97;;;14.40;54.10;;;;;;4955849;28;85918;-64
2023/03/01 09:45:55;;;;;;;60.22;48.15;;;14.50;54.20;;;;;;4948043;28;89923;-63
2023/03/01 09:48:25;;;;;;;62.17;48.58;;;14.60;53.70;;;;;;4961258;28;85431;-58
2023/03/01 09:50:51;;;;;;;62.15;48.08;;;14.60;53.70;;;;;;4943152;28;89431;-64
2023/03/01 09:53:21;;;;;;;61.35;48.58;;;14.70;53.50;;;;;;4949111;28;85950;-58
2023/03/01 09:56:11;;;;;;;61.30;48.70;;;14.80;53.60;;;;;;4958535;28;87495;-64
2023/03/01 09:58:57;;;;;;;61.28;47.85;;;14.80;53.60;;;;;;4962460;28;89127;-54
2023/03/01 10:01:37;;;;;;;60.58;48.17;;;14.80;53.60;;;;;;4955086;28;86793;-52
2023/03/01 10:04:25;;;;;;;61.30;48.87;;;14.80;53.40;;;;;;4960768;28;85804;-63
2023/03/01 10:07:21;;;;;;;60.80;48.75;;;14.90;53.20;;;;;;4957727;28;85683;-61
2023/03/01 10:09:47;;;;;;;62.00;48.33;;;14.90;53.40;;;;;;4953857;28;86912;-52
2023/03/01 10:12:32;;;;;;;62.45;48.45;;;14.90;52.70;;;;;;4948887;28;87351;-59
2023/03/01 10:15:06;;;;;;;62.63;48.58;;;14.90;52.00;;;;;;4929069;28;88860;-59
2023/03/01 10:17:50;;;;;;;61.13;47.50;;;14.90;52.10;;;;;;4934752;28;88820;-52
2023/03/01 10:20:19;;;;;;;71.10;49.97;;;14.90;52.10;;;;;;4941086;28;88796;-59
2023/03/01 10:22:50;;;;;;;69.85;49.15;;;14.90;52.20;;;;;;4940591;28;86729;-51
2023/03/01 10:25:18;;;;;;;65.38;49.55;;;14.80;52.70;;;;;;4945295;28;85868;-49
2023/03/01 10:27:54;;;;;;;68.35;49.50;;;14.90;52.70;;;;;;4947652;28;85996;-52
2023/03/01 10:30:43;;;;;;;65.22;49.47;;;15.00;53.80;;;;;;4941998;28;86182;-48
2023/03/01 10:33:24;;;;;;;69.47;49.45;;;15.00;53.80;;;;;;4949892;28;88505;-56
2023/03/01 10:35:50;;;;;;;68.07;49.25;;;15.00;54.10;;;;;;4933553;28;86862;-69
2023/03/01 10:38:17;;;;;;;67.07;49.53;;;15.10;54.30;;;;;;4936179;28;85958;-61
2023/03/01 10:40:59;;;;;;;64.97;49.80;;;15.10;53.70;;;;;;4952223;28;85526;-69
2023/03/01 10:43:27;;;;;;;70.28;49.90;;;15.10;53.60;;;;;;4950382;28;87838;-52
2023/03/01 10:45:53;;;;;;;67.45;49.55;;;15.20;53.60;;;;;;4949137;28;86292;-53
2023/03/01 10:48:28;;;;;;;65.28;49.28;;;15.20;53.70;;;;;;4936672;28;87630;-51
2023/03/01 10:50:59;;;;;;;64.63;49.30;;;15.20;54.00;;;;;;4950275;28;88225;-50
2023/03/01 10:53:30;;;;;;;65.10;49.17;;;15.20;53.50;;;;;;4950405;28;85858;-53
2023/03/01 10:56:15;;;;;;;67.68;50.08;;;15.30;53.70;;;;;;4939037;28;87564;-52
2023/03/01 10:59:00;;;;;;;66.38;49.53;;;15.40;53.60;;;;;;4944759;28;87650;-57
2023/03/01 11:01:34;;;;;;;67.57;49.33;;;15.40;53.90;;;;;;4950327;28;86683;-67
2023/03/01 11:04:06;;;;;;;64.03;49.50;;;15.40;53.60;;;;;;4941000;28;87160;-58
2023/03/01 11:06:34;;;;;;;65.28;49.03;;;15.50;53.60;;;;;;4938989;28;88009;-50
2023/03/01 11:09:20;;;;;;;63.70;49.20;;;15.50;53.70;;;;;;4944526;28;86689;-49
2023/03/01 11:11:54;;;;;;;67.15;49.20;;;15.60;53.30;;;;;;4946417;28;86884;-62
2023/03/01 11:14:26;;;;;;;64.82;48.65;;;15.60;53.40;;;;;;4941870;28;86722;-51
2023/03/01 11:17:29;;;;;;;68.90;49.55;;;15.50;53.30;;;;;;4957423;28;85706;-53
2023/03/01 11:20:14;;;;;;;67.93;49.30;;;15.60;53.40;;;;;;4948133;28;85113;-56
2023/03/01 11:22:55;;;;;;;68.03;49.60;;;15.70;54.00;;;;;;4936797;28;86900;-51
2023/03/01 11:25:30;;;;;;;68.28;49.53;;;15.70;54.00;;;;;;4938947;28;87599;-68
2023/03/01 11:27:59;;;;;;;65.72;49.80;;;15.70;54.00;;;;;;4941664;28;86518;-59
2023/03/01 11:31:02;;;;;;;63.17;49.13;;;15.60;53.80;;;;;;4949311;28;90375;-61
2023/03/01 11:33:42;;;;;;;66.47;49.88;;;15.60;53.60;;;;;;4903939;28;86797;-52
2023/03/01 11:36:17;;;;;;;66.25;49.25;;;15.60;53.80;;;;;;4949577;28;87105;-53
2023/03/01 11:38:43;;;;;;;65.80;49.22;;;15.60;53.90;;;;;;4960358;28;86552;-48
2023/03/01 11:41:28;;;;;;;66.00;49.60;;;15.60;54.10;;;;;;4948793;28;85428;-53
2023/03/01 11:44:01;;;;;;;66.70;49.53;;;15.60;53.70;;;;;;4936942;28;85505;-58
2023/03/01 11:46:33;;;;;;;65.80;49.78;;;15.60;53.60;;;;;;4936628;28;90819;-51
2023/03/01 11:49:01;;;;;;;;;;;15.70;53.40;;;;;;4943187;28;88225;-54
2023/03/01 11:51:53;;;;;;;64.93;49.42;;;15.60;52.90;;;;;;4954147;28;83062;-66
2023/03/01 11:54:34;;;;;;;65.65;49.55;;;15.60;52.20;;;;;;4950881;28;85221;-59
2023/03/01 11:57:30;;;;;;;63.70;49.37;;;15.60;51.80;;;;;;4935092;28;86448;-58
2023/03/01 12:00:02;;;;;;;64.03;48.95;;;15.60;51.70;;;;;;4937121;28;89795;-63
2023/03/01 12:02:50;;;;;;;65.80;49.00;;;15.60;51.70;;;;;;4937765;28;86747;-65
2023/03/01 12:05:28;;;;;;;64.38;49.22;;;15.60;52.00;;;;;;4940850;28;86329;-66
2023/03/01 12:08:17;;;;;;;66.55;49.40;;;15.60;52.10;;;;;;4937416;28;86983;-65
2023/03/01 12:10:46;;;;;;;63.90;49.75;;;15.60;51.80;;;;;;4931073;28;90128;-62
2023/03/01 12:13:46;;;;;;;67.43;49.33;;;15.60;52.30;;;;;;4941037;28;86578;-64
2023/03/01 12:16:37;;;;;;;62.80;48.67;;;15.60;52.50;;;;;;4943636;28;87085;-59
2023/03/01 12:19:20;;;;;;;64.60;48.90;;;15.70;53.10;;;;;;4938542;28;87364;-57
2023/03/01 12:22:02;;;;;;;64.85;49.08;;;15.70;53.30;;;;;;4940499;28;88881;-54
2023/03/01 12:24:38;;;;;;;;;;;15.70;53.30;;;;;;4944225;28;85743;-56
2023/03/01 12:27:31;;;;;;;63.97;49.15;;;15.70;53.70;;;;;;4944374;28;83177;-63
2023/03/01 12:29:59;;;;;;;64.28;49.55;;;15.70;52.50;;;;;;4943229;28;85847;-65
2023/03/01 12:32:46;;;;;;;65.55;49.38;;;15.70;52.40;;;;;;4952085;28;85533;-65
2023/03/01 12:35:24;;;;;;;66.07;48.88;;;15.70;51.70;;;;;;4943964;28;85785;-58
2023/03/01 12:38:11;;;;;;;65.63;48.90;;;15.80;52.20;;;;;;4945147;28;85380;-59
2023/03/01 12:40:48;;;;;;;66.00;48.92;;;15.90;52.00;;;;;;4940297;28;86603;-71
2023/03/01 12:43:36;;;;;;;63.28;49.42;;;15.90;52.10;;;;;;4941364;28;86822;-54
2023/03/01 12:46:18;;;;;;;64.15;49.28;;;15.90;51.60;;;;;;4939294;28;86791;-56
2023/03/01 12:48:53;;;;;;;69.70;48.67;;;15.90;51.90;;;;;;4939856;28;85758;-61
2023/03/01 12:51:24;;;;;;;63.28;49.22;;;15.90;51.90;;;;;;4944438;28;86025;-54
2023/03/01 12:53:53;;;;;;;63.60;48.65;;;15.90;52.30;;;;;;4928225;28;87261;-60
2023/03/01 12:56:38;;;;;;;63.60;48.67;;;16.00;52.60;;;;;;4934652;28;86881;-58
2023/03/01 12:59:22;;;;;;;66.53;49.45;;;16.10;53.00;;;;;;4947631;28;92835;-54